MMDO/DGO METAR and TAF weather

Enter ICAO airport designator
Station Type Date Time Source
MMDO METAR 2019/08/24 21:42 UTC NOAA

MMDO 242142Z 00000KT 14SM SCT025TCU BKN030 26/08 A3019 RMK 8/200 CB N STN


Station Type Date Time Source
MMDO Decoded METAR 2019/08/24 21:42 UTC NOAA

Station name not available
Aug 24, 2019 - 05:42 PM EDT / 2019.08.24 2142 UTC
Wind: Calm:0
Visibility: 14 mile(s):0
Sky conditions: mostly cloudy
Weather: Cumulonimbus clouds, towering cumulus clouds observed
Temperature: 78 F (26 C)
Dew Point: 46 F (8 C)
Relative Humidity: 31%
Pressure (altimeter): 30.19 in. Hg (1022 hPa)
ob: MMDO 242142Z 00000KT 14SM SCT025TCU BKN030 26/08 A3019 RMK 8/200 CB N STN
cycle: 21

Station Type Date Time Source
MMDO TAF 2019/08/24 18:53 UTC NOAA

TAF COR MMDO 241849Z 2418/2518 03012KT P6SM BKN025 BKN090 BKN200
BECMG 2421/2422 BKN020CB
TEMPO 2423/2503 4SM TSRA
FM250300 34005KT 6SM -RA BKN020 OVC100
FM251500 03008KT P6SM BKN090 BKN220

Example: see airport list